sensor_id;sensor_type;location;lat;lon;timestamp;P1;durP1;ratioP1;P2;durP2;ratioP2
15480;SDS011;7842;50.904;6.670;2023-07-28T00:00:48;1.30;;;1.10;;
15480;SDS011;7842;50.904;6.670;2023-07-28T00:03:14;1.52;;;1.30;;
15480;SDS011;7842;50.904;6.670;2023-07-28T00:05:40;1.80;;;1.02;;
15480;SDS011;7842;50.904;6.670;2023-07-28T00:08:06;1.40;;;1.10;;
15480;SDS011;7842;50.904;6.670;2023-07-28T00:10:32;1.20;;;1.00;;
15480;SDS011;7842;50.904;6.670;2023-07-28T00:12:58;1.30;;;1.17;;
15480;SDS011;7842;50.904;6.670;2023-07-28T00:15:24;1.10;;;1.00;;
15480;SDS011;7842;50.904;6.670;2023-07-28T00:17:50;1.17;;;1.05;;
15480;SDS011;7842;50.904;6.670;2023-07-28T00:20:17;1.10;;;1.00;;
15480;SDS011;7842;50.904;6.670;2023-07-28T00:22:43;1.40;;;0.90;;
15480;SDS011;7842;50.904;6.670;2023-07-28T00:25:09;1.20;;;0.90;;
15480;SDS011;7842;50.904;6.670;2023-07-28T00:27:35;1.30;;;0.90;;
15480;SDS011;7842;50.904;6.670;2023-07-28T00:30:01;1.55;;;1.00;;
15480;SDS011;7842;50.904;6.670;2023-07-28T00:32:28;1.33;;;1.00;;
15480;SDS011;7842;50.904;6.670;2023-07-28T00:34:53;1.40;;;0.90;;
15480;SDS011;7842;50.904;6.670;2023-07-28T00:37:20;1.13;;;0.85;;
15480;SDS011;7842;50.904;6.670;2023-07-28T00:39:47;1.17;;;0.73;;
15480;SDS011;7842;50.904;6.670;2023-07-28T00:42:14;0.88;;;0.80;;
15480;SDS011;7842;50.904;6.670;2023-07-28T00:44:40;1.50;;;0.90;;
15480;SDS011;7842;50.904;6.670;2023-07-28T00:47:07;0.80;;;0.80;;
15480;SDS011;7842;50.904;6.670;2023-07-28T00:49:34;0.90;;;0.70;;
15480;SDS011;7842;50.904;6.670;2023-07-28T00:51:59;1.10;;;0.90;;
15480;SDS011;7842;50.904;6.670;2023-07-28T00:54:26;1.20;;;0.80;;
15480;SDS011;7842;50.904;6.670;2023-07-28T00:56:53;1.00;;;0.80;;
15480;SDS011;7842;50.904;6.670;2023-07-28T00:59:21;1.20;;;0.77;;
15480;SDS011;7842;50.904;6.670;2023-07-28T01:01:46;1.45;;;0.90;;
15480;SDS011;7842;50.904;6.670;2023-07-28T01:04:12;0.90;;;0.80;;
15480;SDS011;7842;50.904;6.670;2023-07-28T01:06:51;1.40;;;0.80;;
15480;SDS011;7842;50.904;6.670;2023-07-28T01:09:24;1.33;;;0.80;;
15480;SDS011;7842;50.904;6.670;2023-07-28T01:12:02;1.30;;;0.77;;
15480;SDS011;7842;50.904;6.670;2023-07-28T01:14:34;1.10;;;0.70;;
15480;SDS011;7842;50.904;6.670;2023-07-28T01:16:59;0.70;;;0.70;;
15480;SDS011;7842;50.904;6.670;2023-07-28T01:19:26;1.27;;;0.90;;
15480;SDS011;7842;50.904;6.670;2023-07-28T01:22:04;1.85;;;0.80;;
15480;SDS011;7842;50.904;6.670;2023-07-28T01:24:51;2.05;;;0.90;;
15480;SDS011;7842;50.904;6.670;2023-07-28T01:27:19;1.10;;;1.00;;
15480;SDS011;7842;50.904;6.670;2023-07-28T01:29:47;1.00;;;0.93;;
15480;SDS011;7842;50.904;6.670;2023-07-28T01:32:14;1.23;;;1.10;;
15480;SDS011;7842;50.904;6.670;2023-07-28T01:34:41;1.65;;;1.10;;
15480;SDS011;7842;50.904;6.670;2023-07-28T01:37:08;1.13;;;0.83;;
15480;SDS011;7842;50.904;6.670;2023-07-28T01:39:35;1.70;;;1.08;;
15480;SDS011;7842;50.904;6.670;2023-07-28T01:42:01;1.10;;;1.00;;
15480;SDS011;7842;50.904;6.670;2023-07-28T01:44:28;1.73;;;0.90;;
15480;SDS011;7842;50.904;6.670;2023-07-28T01:46:56;1.60;;;1.20;;
15480;SDS011;7842;50.904;6.670;2023-07-28T01:49:22;1.40;;;1.10;;
15480;SDS011;7842;50.904;6.670;2023-07-28T01:51:48;2.30;;;1.17;;
15480;SDS011;7842;50.904;6.670;2023-07-28T01:54:14;1.52;;;1.15;;
15480;SDS011;7842;50.904;6.670;2023-07-28T01:56:40;1.20;;;1.10;;
15480;SDS011;7842;50.904;6.670;2023-07-28T01:59:08;1.73;;;1.10;;
15480;SDS011;7842;50.904;6.670;2023-07-28T02:01:34;1.63;;;1.10;;
15480;SDS011;7842;50.904;6.670;2023-07-28T02:04:00;1.98;;;1.30;;
15480;SDS011;7842;50.904;6.670;2023-07-28T02:06:26;2.85;;;1.60;;
15480;SDS011;7842;50.904;6.670;2023-07-28T02:08:52;1.73;;;1.45;;
15480;SDS011;7842;50.904;6.670;2023-07-28T02:11:18;1.85;;;1.55;;
15480;SDS011;7842;50.904;6.670;2023-07-28T02:13:44;4.70;;;1.80;;
15480;SDS011;7842;50.904;6.670;2023-07-28T02:16:10;1.88;;;1.50;;
15480;SDS011;7842;50.904;6.670;2023-07-28T02:18:36;1.90;;;1.30;;
15480;SDS011;7842;50.904;6.670;2023-07-28T02:21:02;2.15;;;1.40;;
15480;SDS011;7842;50.904;6.670;2023-07-28T02:23:28;4.05;;;1.60;;
15480;SDS011;7842;50.904;6.670;2023-07-28T02:25:55;3.55;;;1.40;;
15480;SDS011;7842;50.904;6.670;2023-07-28T02:28:21;2.35;;;1.50;;
15480;SDS011;7842;50.904;6.670;2023-07-28T02:30:47;1.92;;;1.40;;
15480;SDS011;7842;50.904;6.670;2023-07-28T02:33:13;3.65;;;1.40;;
15480;SDS011;7842;50.904;6.670;2023-07-28T02:35:39;2.50;;;1.48;;
15480;SDS011;7842;50.904;6.670;2023-07-28T02:38:05;2.05;;;1.60;;
15480;SDS011;7842;50.904;6.670;2023-07-28T02:40:32;3.95;;;1.40;;
15480;SDS011;7842;50.904;6.670;2023-07-28T02:42:58;2.30;;;1.45;;
15480;SDS011;7842;50.904;6.670;2023-07-28T02:45:24;3.00;;;1.50;;
15480;SDS011;7842;50.904;6.670;2023-07-28T02:47:50;1.50;;;1.40;;
15480;SDS011;7842;50.904;6.670;2023-07-28T02:50:16;2.88;;;1.58;;
15480;SDS011;7842;50.904;6.670;2023-07-28T02:52:42;2.27;;;1.73;;
15480;SDS011;7842;50.904;6.670;2023-07-28T02:55:08;1.93;;;1.60;;
15480;SDS011;7842;50.904;6.670;2023-07-28T02:57:34;2.13;;;1.70;;
15480;SDS011;7842;50.904;6.670;2023-07-28T03:00:00;3.50;;;1.60;;
15480;SDS011;7842;50.904;6.670;2023-07-28T03:02:26;2.63;;;1.63;;
15480;SDS011;7842;50.904;6.670;2023-07-28T03:04:52;3.33;;;1.87;;
15480;SDS011;7842;50.904;6.670;2023-07-28T03:07:18;2.57;;;1.67;;
15480;SDS011;7842;50.904;6.670;2023-07-28T03:09:44;2.47;;;1.87;;
15480;SDS011;7842;50.904;6.670;2023-07-28T03:12:10;3.13;;;2.00;;
15480;SDS011;7842;50.904;6.670;2023-07-28T03:14:37;2.72;;;1.85;;
15480;SDS011;7842;50.904;6.670;2023-07-28T03:17:03;2.25;;;1.90;;
15480;SDS011;7842;50.904;6.670;2023-07-28T03:19:29;2.03;;;1.80;;
15480;SDS011;7842;50.904;6.670;2023-07-28T03:21:55;2.13;;;1.90;;
15480;SDS011;7842;50.904;6.670;2023-07-28T03:24:21;2.38;;;2.00;;
15480;SDS011;7842;50.904;6.670;2023-07-28T03:26:47;2.90;;;1.85;;
15480;SDS011;7842;50.904;6.670;2023-07-28T03:29:13;2.47;;;1.80;;
15480;SDS011;7842;50.904;6.670;2023-07-28T03:31:39;2.28;;;1.90;;
15480;SDS011;7842;50.904;6.670;2023-07-28T03:34:05;3.83;;;2.28;;
15480;SDS011;7842;50.904;6.670;2023-07-28T03:36:31;3.53;;;1.90;;
15480;SDS011;7842;50.904;6.670;2023-07-28T03:38:57;2.38;;;1.95;;
15480;SDS011;7842;50.904;6.670;2023-07-28T03:41:24;3.35;;;2.08;;
15480;SDS011;7842;50.904;6.670;2023-07-28T03:43:50;3.03;;;2.45;;
15480;SDS011;7842;50.904;6.670;2023-07-28T03:46:17;3.30;;;2.20;;
15480;SDS011;7842;50.904;6.670;2023-07-28T03:48:43;2.47;;;2.00;;
15480;SDS011;7842;50.904;6.670;2023-07-28T03:51:08;3.80;;;1.92;;
15480;SDS011;7842;50.904;6.670;2023-07-28T03:53:34;3.97;;;2.15;;
15480;SDS011;7842;50.904;6.670;2023-07-28T03:56:01;3.13;;;1.95;;
15480;SDS011;7842;50.904;6.670;2023-07-28T03:58:27;2.72;;;2.00;;
15480;SDS011;7842;50.904;6.670;2023-07-28T04:00:53;2.57;;;1.90;;
15480;SDS011;7842;50.904;6.670;2023-07-28T04:03:19;2.23;;;1.97;;
15480;SDS011;7842;50.904;6.670;2023-07-28T04:05:45;2.00;;;1.80;;
15480;SDS011;7842;50.904;6.670;2023-07-28T04:08:11;3.40;;;1.80;;
15480;SDS011;7842;50.904;6.670;2023-07-28T04:10:37;2.50;;;1.80;;
15480;SDS011;7842;50.904;6.670;2023-07-28T04:13:03;3.10;;;1.88;;
15480;SDS011;7842;50.904;6.670;2023-07-28T04:15:29;2.80;;;1.90;;
15480;SDS011;7842;50.904;6.670;2023-07-28T04:17:55;2.33;;;1.70;;
15480;SDS011;7842;50.904;6.670;2023-07-28T04:20:21;2.50;;;1.83;;
15480;SDS011;7842;50.904;6.670;2023-07-28T04:22:47;2.10;;;1.90;;
15480;SDS011;7842;50.904;6.670;2023-07-28T04:25:13;1.90;;;1.70;;
15480;SDS011;7842;50.904;6.670;2023-07-28T04:27:39;2.53;;;1.70;;
15480;SDS011;7842;50.904;6.670;2023-07-28T04:30:05;3.28;;;1.67;;
15480;SDS011;7842;50.904;6.670;2023-07-28T04:32:31;3.55;;;1.88;;
15480;SDS011;7842;50.904;6.670;2023-07-28T04:34:57;1.80;;;1.60;;
15480;SDS011;7842;50.904;6.670;2023-07-28T04:37:23;2.60;;;1.67;;
15480;SDS011;7842;50.904;6.670;2023-07-28T04:39:49;2.75;;;1.73;;
15480;SDS011;7842;50.904;6.670;2023-07-28T04:42:15;2.72;;;1.50;;
15480;SDS011;7842;50.904;6.670;2023-07-28T04:44:41;3.97;;;1.70;;
15480;SDS011;7842;50.904;6.670;2023-07-28T04:47:07;2.25;;;1.90;;
15480;SDS011;7842;50.904;6.670;2023-07-28T04:49:33;2.90;;;1.60;;
15480;SDS011;7842;50.904;6.670;2023-07-28T04:51:58;3.77;;;1.33;;
15480;SDS011;7842;50.904;6.670;2023-07-28T04:54:24;1.80;;;1.20;;
15480;SDS011;7842;50.904;6.670;2023-07-28T04:56:49;1.65;;;1.20;;
15480;SDS011;7842;50.904;6.670;2023-07-28T04:59:18;2.35;;;1.27;;
15480;SDS011;7842;50.904;6.670;2023-07-28T05:01:43;1.83;;;1.20;;
15480;SDS011;7842;50.904;6.670;2023-07-28T05:04:09;1.83;;;1.23;;
15480;SDS011;7842;50.904;6.670;2023-07-28T05:06:35;2.30;;;1.88;;
15480;SDS011;7842;50.904;6.670;2023-07-28T05:09:00;1.95;;;1.00;;
15480;SDS011;7842;50.904;6.670;2023-07-28T05:11:26;1.70;;;1.00;;
15480;SDS011;7842;50.904;6.670;2023-07-28T05:13:52;1.40;;;0.90;;
15480;SDS011;7842;50.904;6.670;2023-07-28T05:16:18;2.05;;;0.95;;
15480;SDS011;7842;50.904;6.670;2023-07-28T05:18:43;1.00;;;0.80;;
15480;SDS011;7842;50.904;6.670;2023-07-28T05:21:09;1.20;;;0.70;;
15480;SDS011;7842;50.904;6.670;2023-07-28T05:23:34;1.50;;;0.98;;
15480;SDS011;7842;50.904;6.670;2023-07-28T05:26:00;1.20;;;1.00;;
15480;SDS011;7842;50.904;6.670;2023-07-28T05:28:25;2.20;;;0.70;;
15480;SDS011;7842;50.904;6.670;2023-07-28T05:30:51;1.20;;;0.70;;
15480;SDS011;7842;50.904;6.670;2023-07-28T05:33:17;1.40;;;0.83;;
15480;SDS011;7842;50.904;6.670;2023-07-28T05:35:42;1.90;;;0.80;;
15480;SDS011;7842;50.904;6.670;2023-07-28T05:38:08;1.27;;;0.70;;
15480;SDS011;7842;50.904;6.670;2023-07-28T05:40:34;0.70;;;0.70;;
15480;SDS011;7842;50.904;6.670;2023-07-28T05:42:59;1.00;;;0.80;;
15480;SDS011;7842;50.904;6.670;2023-07-28T05:45:25;1.83;;;0.70;;
15480;SDS011;7842;50.904;6.670;2023-07-28T05:47:50;1.88;;;0.80;;
15480;SDS011;7842;50.904;6.670;2023-07-28T05:50:16;1.47;;;0.87;;
15480;SDS011;7842;50.904;6.670;2023-07-28T05:52:41;0.93;;;0.67;;
15480;SDS011;7842;50.904;6.670;2023-07-28T05:55:07;1.45;;;0.70;;
15480;SDS011;7842;50.904;6.670;2023-07-28T05:57:33;0.93;;;0.70;;
15480;SDS011;7842;50.904;6.670;2023-07-28T05:59:59;0.70;;;0.70;;
15480;SDS011;7842;50.904;6.670;2023-07-28T06:02:24;0.90;;;0.80;;
15480;SDS011;7842;50.904;6.670;2023-07-28T06:04:50;1.50;;;0.80;;
15480;SDS011;7842;50.904;6.670;2023-07-28T06:07:17;1.10;;;0.82;;
15480;SDS011;7842;50.904;6.670;2023-07-28T06:09:42;1.48;;;0.90;;
15480;SDS011;7842;50.904;6.670;2023-07-28T06:12:08;1.30;;;0.90;;
15480;SDS011;7842;50.904;6.670;2023-07-28T06:14:33;1.40;;;0.90;;
15480;SDS011;7842;50.904;6.670;2023-07-28T06:16:59;1.25;;;0.90;;
15480;SDS011;7842;50.904;6.670;2023-07-28T06:19:25;1.00;;;0.90;;
15480;SDS011;7842;50.904;6.670;2023-07-28T06:21:50;1.10;;;1.00;;
15480;SDS011;7842;50.904;6.670;2023-07-28T06:24:16;1.17;;;1.00;;
15480;SDS011;7842;50.904;6.670;2023-07-28T06:26:42;1.92;;;1.40;;
15480;SDS011;7842;50.904;6.670;2023-07-28T06:29:08;2.17;;;1.20;;
15480;SDS011;7842;50.904;6.670;2023-07-28T06:31:33;1.55;;;1.10;;
15480;SDS011;7842;50.904;6.670;2023-07-28T06:33:59;2.20;;;1.10;;
15480;SDS011;7842;50.904;6.670;2023-07-28T06:36:24;2.93;;;1.37;;
15480;SDS011;7842;50.904;6.670;2023-07-28T06:38:50;1.83;;;1.30;;
15480;SDS011;7842;50.904;6.670;2023-07-28T06:41:17;1.40;;;1.30;;
15480;SDS011;7842;50.904;6.670;2023-07-28T06:43:42;1.60;;;1.47;;
15480;SDS011;7842;50.904;6.670;2023-07-28T06:46:08;1.70;;;1.52;;
15480;SDS011;7842;50.904;6.670;2023-07-28T06:48:34;1.95;;;1.70;;
15480;SDS011;7842;50.904;6.670;2023-07-28T06:50:59;1.77;;;1.67;;
15480;SDS011;7842;50.904;6.670;2023-07-28T06:53:25;1.90;;;1.70;;
15480;SDS011;7842;50.904;6.670;2023-07-28T06:55:51;1.90;;;1.70;;
15480;SDS011;7842;50.904;6.670;2023-07-28T06:58:16;2.60;;;1.83;;
15480;SDS011;7842;50.904;6.670;2023-07-28T07:00:42;2.28;;;2.00;;
15480;SDS011;7842;50.904;6.670;2023-07-28T07:03:09;2.17;;;1.87;;
15480;SDS011;7842;50.904;6.670;2023-07-28T07:05:36;2.95;;;2.00;;
15480;SDS011;7842;50.904;6.670;2023-07-28T07:08:02;2.73;;;2.00;;
15480;SDS011;7842;50.904;6.670;2023-07-28T07:10:27;2.43;;;2.03;;
15480;SDS011;7842;50.904;6.670;2023-07-28T07:12:53;2.33;;;1.98;;
15480;SDS011;7842;50.904;6.670;2023-07-28T07:15:19;3.10;;;2.20;;
15480;SDS011;7842;50.904;6.670;2023-07-28T07:17:44;3.08;;;2.20;;
15480;SDS011;7842;50.904;6.670;2023-07-28T07:20:10;3.30;;;2.20;;
15480;SDS011;7842;50.904;6.670;2023-07-28T07:22:36;2.20;;;2.00;;
15480;SDS011;7842;50.904;6.670;2023-07-28T07:25:02;2.30;;;2.10;;
15480;SDS011;7842;50.904;6.670;2023-07-28T07:27:29;2.30;;;1.97;;
15480;SDS011;7842;50.904;6.670;2023-07-28T07:29:54;1.83;;;1.73;;
15480;SDS011;7842;50.904;6.670;2023-07-28T07:32:20;2.33;;;1.95;;
15480;SDS011;7842;50.904;6.670;2023-07-28T07:34:46;1.90;;;1.70;;
15480;SDS011;7842;50.904;6.670;2023-07-28T07:37:12;2.50;;;1.73;;
15480;SDS011;7842;50.904;6.670;2023-07-28T07:39:40;2.72;;;1.77;;
15480;SDS011;7842;50.904;6.670;2023-07-28T07:42:06;2.20;;;2.00;;
15480;SDS011;7842;50.904;6.670;2023-07-28T07:44:34;1.80;;;1.70;;
15480;SDS011;7842;50.904;6.670;2023-07-28T07:47:00;1.90;;;1.60;;
15480;SDS011;7842;50.904;6.670;2023-07-28T07:49:36;1.70;;;1.60;;
15480;SDS011;7842;50.904;6.670;2023-07-28T07:52:01;3.40;;;1.77;;
15480;SDS011;7842;50.904;6.670;2023-07-28T07:54:27;1.90;;;1.70;;
15480;SDS011;7842;50.904;6.670;2023-07-28T07:56:52;1.95;;;1.75;;
15480;SDS011;7842;50.904;6.670;2023-07-28T07:59:18;2.37;;;1.87;;
15480;SDS011;7842;50.904;6.670;2023-07-28T08:01:43;1.73;;;1.50;;
15480;SDS011;7842;50.904;6.670;2023-07-28T08:04:09;1.80;;;1.60;;
15480;SDS011;7842;50.904;6.670;2023-07-28T08:06:35;2.10;;;1.60;;
15480;SDS011;7842;50.904;6.670;2023-07-28T08:09:01;2.23;;;1.60;;
15480;SDS011;7842;50.904;6.670;2023-07-28T08:11:27;1.83;;;1.50;;
15480;SDS011;7842;50.904;6.670;2023-07-28T08:13:53;3.10;;;1.58;;
15480;SDS011;7842;50.904;6.670;2023-07-28T08:16:20;1.50;;;1.40;;
15480;SDS011;7842;50.904;6.670;2023-07-28T08:18:45;1.90;;;1.40;;
15480;SDS011;7842;50.904;6.670;2023-07-28T08:21:11;2.25;;;1.38;;
15480;SDS011;7842;50.904;6.670;2023-07-28T08:23:37;1.60;;;1.50;;
15480;SDS011;7842;50.904;6.670;2023-07-28T08:26:03;1.55;;;1.40;;
15480;SDS011;7842;50.904;6.670;2023-07-28T08:28:28;1.60;;;1.20;;
15480;SDS011;7842;50.904;6.670;2023-07-28T08:30:55;2.27;;;1.40;;
15480;SDS011;7842;50.904;6.670;2023-07-28T08:33:21;1.92;;;1.50;;
15480;SDS011;7842;50.904;6.670;2023-07-28T08:35:47;2.58;;;1.60;;
15480;SDS011;7842;50.904;6.670;2023-07-28T08:38:13;2.08;;;1.60;;
15480;SDS011;7842;50.904;6.670;2023-07-28T08:40:39;1.90;;;1.70;;
15480;SDS011;7842;50.904;6.670;2023-07-28T08:43:05;1.65;;;1.42;;
15480;SDS011;7842;50.904;6.670;2023-07-28T08:45:31;1.57;;;1.47;;
15480;SDS011;7842;50.904;6.670;2023-07-28T08:47:56;1.30;;;1.20;;
15480;SDS011;7842;50.904;6.670;2023-07-28T08:50:22;1.70;;;1.60;;
15480;SDS011;7842;50.904;6.670;2023-07-28T08:52:48;1.77;;;1.33;;
15480;SDS011;7842;50.904;6.670;2023-07-28T08:55:15;1.90;;;1.30;;
15480;SDS011;7842;50.904;6.670;2023-07-28T08:57:42;1.42;;;1.30;;
15480;SDS011;7842;50.904;6.670;2023-07-28T09:00:11;1.50;;;1.40;;
15480;SDS011;7842;50.904;6.670;2023-07-28T09:02:39;2.50;;;1.17;;
15480;SDS011;7842;50.904;6.670;2023-07-28T09:05:05;1.40;;;1.20;;
15480;SDS011;7842;50.904;6.670;2023-07-28T09:07:35;1.73;;;1.00;;
15480;SDS011;7842;50.904;6.670;2023-07-28T09:10:04;1.10;;;1.00;;
15480;SDS011;7842;50.904;6.670;2023-07-28T09:12:33;1.33;;;1.20;;
15480;SDS011;7842;50.904;6.670;2023-07-28T09:14:58;1.90;;;1.15;;
15480;SDS011;7842;50.904;6.670;2023-07-28T09:17:24;2.75;;;1.00;;
15480;SDS011;7842;50.904;6.670;2023-07-28T09:19:51;1.10;;;1.00;;
15480;SDS011;7842;50.904;6.670;2023-07-28T09:22:21;2.22;;;1.40;;
15480;SDS011;7842;50.904;6.670;2023-07-28T09:24:48;1.10;;;1.00;;
15480;SDS011;7842;50.904;6.670;2023-07-28T09:29:50;1.80;;;1.07;;
15480;SDS011;7842;50.904;6.670;2023-07-28T09:32:17;1.30;;;1.10;;
15480;SDS011;7842;50.904;6.670;2023-07-28T09:35:11;1.23;;;1.10;;
15480;SDS011;7842;50.904;6.670;2023-07-28T09:37:38;1.10;;;1.00;;
15480;SDS011;7842;50.904;6.670;2023-07-28T09:40:12;1.20;;;1.00;;
15480;SDS011;7842;50.904;6.670;2023-07-28T09:42:47;1.20;;;1.10;;
15480;SDS011;7842;50.904;6.670;2023-07-28T09:45:15;1.30;;;1.20;;
15480;SDS011;7842;50.904;6.670;2023-07-28T09:47:47;1.30;;;1.10;;
15480;SDS011;7842;50.904;6.670;2023-07-28T09:50:19;1.17;;;1.00;;
15480;SDS011;7842;50.904;6.670;2023-07-28T09:52:53;1.00;;;1.00;;
15480;SDS011;7842;50.904;6.670;2023-07-28T09:55:23;1.20;;;1.10;;
15480;SDS011;7842;50.904;6.670;2023-07-28T09:57:51;1.10;;;1.10;;
15480;SDS011;7842;50.904;6.670;2023-07-28T10:00:18;1.40;;;1.30;;
15480;SDS011;7842;50.904;6.670;2023-07-28T10:02:47;1.15;;;1.05;;
15480;SDS011;7842;50.904;6.670;2023-07-28T10:05:13;1.15;;;1.05;;
15480;SDS011;7842;50.904;6.670;2023-07-28T10:07:40;1.20;;;1.02;;
15480;SDS011;7842;50.904;6.670;2023-07-28T10:10:07;1.10;;;1.00;;
15480;SDS011;7842;50.904;6.670;2023-07-28T10:12:41;1.20;;;1.10;;
15480;SDS011;7842;50.904;6.670;2023-07-28T10:15:18;2.00;;;1.08;;
15480;SDS011;7842;50.904;6.670;2023-07-28T10:25:37;1.00;;;0.90;;
15480;SDS011;7842;50.904;6.670;2023-07-28T10:28:04;1.00;;;0.90;;
15480;SDS011;7842;50.904;6.670;2023-07-28T10:30:37;1.30;;;0.90;;
15480;SDS011;7842;50.904;6.670;2023-07-28T10:36:46;1.70;;;0.98;;
15480;SDS011;7842;50.904;6.670;2023-07-28T10:38:47;1.63;;;1.00;;
15480;SDS011;7842;50.904;6.670;2023-07-28T10:41:38;1.45;;;1.00;;
15480;SDS011;7842;50.904;6.670;2023-07-28T10:44:07;1.20;;;1.10;;
15480;SDS011;7842;50.904;6.670;2023-07-28T10:46:34;2.10;;;1.00;;
15480;SDS011;7842;50.904;6.670;2023-07-28T10:49:04;1.20;;;1.10;;
15480;SDS011;7842;50.904;6.670;2023-07-28T10:51:31;1.40;;;1.27;;
15480;SDS011;7842;50.904;6.670;2023-07-28T10:53:58;1.15;;;1.05;;
15480;SDS011;7842;50.904;6.670;2023-07-28T10:56:25;1.10;;;1.00;;
15480;SDS011;7842;50.904;6.670;2023-07-28T10:59:04;1.13;;;1.02;;
15480;SDS011;7842;50.904;6.670;2023-07-28T11:01:34;1.37;;;1.10;;
15480;SDS011;7842;50.904;6.670;2023-07-28T11:06:51;1.98;;;1.20;;
15480;SDS011;7842;50.904;6.670;2023-07-28T11:09:17;1.60;;;1.50;;
15480;SDS011;7842;50.904;6.670;2023-07-28T11:11:44;1.38;;;1.27;;
15480;SDS011;7842;50.904;6.670;2023-07-28T11:14:11;1.30;;;1.20;;
15480;SDS011;7842;50.904;6.670;2023-07-28T11:16:37;1.20;;;1.10;;
15480;SDS011;7842;50.904;6.670;2023-07-28T11:19:08;1.40;;;1.30;;
15480;SDS011;7842;50.904;6.670;2023-07-28T11:21:42;1.30;;;1.20;;
15480;SDS011;7842;50.904;6.670;2023-07-28T11:24:08;1.17;;;1.08;;
15480;SDS011;7842;50.904;6.670;2023-07-28T11:26:38;1.03;;;0.80;;
15480;SDS011;7842;50.904;6.670;2023-07-28T11:29:04;1.30;;;1.20;;
15480;SDS011;7842;50.904;6.670;2023-07-28T11:31:30;1.30;;;1.20;;
15480;SDS011;7842;50.904;6.670;2023-07-28T11:33:57;1.88;;;1.48;;
15480;SDS011;7842;50.904;6.670;2023-07-28T11:36:24;1.40;;;1.30;;
15480;SDS011;7842;50.904;6.670;2023-07-28T11:38:54;1.40;;;1.30;;
15480;SDS011;7842;50.904;6.670;2023-07-28T11:41:21;1.42;;;1.33;;
15480;SDS011;7842;50.904;6.670;2023-07-28T11:43:47;1.58;;;1.48;;
15480;SDS011;7842;50.904;6.670;2023-07-28T11:46:33;1.40;;;1.30;;
15480;SDS011;7842;50.904;6.670;2023-07-28T11:49:06;1.25;;;1.15;;
15480;SDS011;7842;50.904;6.670;2023-07-28T11:51:40;1.27;;;1.17;;
15480;SDS011;7842;50.904;6.670;2023-07-28T11:54:08;1.20;;;1.20;;
15480;SDS011;7842;50.904;6.670;2023-07-28T11:56:36;1.30;;;1.00;;
15480;SDS011;7842;50.904;6.670;2023-07-28T11:59:02;1.10;;;1.00;;
15480;SDS011;7842;50.904;6.670;2023-07-28T12:01:29;0.90;;;0.90;;
15480;SDS011;7842;50.904;6.670;2023-07-28T12:03:54;0.77;;;0.77;;
15480;SDS011;7842;50.904;6.670;2023-07-28T12:06:20;0.87;;;0.87;;
15480;SDS011;7842;50.904;6.670;2023-07-28T12:08:46;1.33;;;0.80;;
15480;SDS011;7842;50.904;6.670;2023-07-28T12:11:14;1.33;;;1.23;;
15480;SDS011;7842;50.904;6.670;2023-07-28T12:13:48;1.15;;;1.05;;
15480;SDS011;7842;50.904;6.670;2023-07-28T12:19:09;0.90;;;0.90;;
15480;SDS011;7842;50.904;6.670;2023-07-28T12:21:34;1.10;;;1.00;;
15480;SDS011;7842;50.904;6.670;2023-07-28T12:24:00;0.90;;;0.90;;
15480;SDS011;7842;50.904;6.670;2023-07-28T12:26:25;1.08;;;1.00;;
15480;SDS011;7842;50.904;6.670;2023-07-28T12:28:51;1.47;;;1.20;;
15480;SDS011;7842;50.904;6.670;2023-07-28T12:31:16;1.15;;;1.05;;
15480;SDS011;7842;50.904;6.670;2023-07-28T12:33:42;2.50;;;1.00;;
15480;SDS011;7842;50.904;6.670;2023-07-28T12:36:08;1.05;;;1.00;;
15480;SDS011;7842;50.904;6.670;2023-07-28T12:38:34;1.15;;;1.05;;
15480;SDS011;7842;50.904;6.670;2023-07-28T12:41:00;1.20;;;1.10;;
15480;SDS011;7842;50.904;6.670;2023-07-28T12:43:25;0.95;;;0.80;;
15480;SDS011;7842;50.904;6.670;2023-07-28T12:45:51;1.27;;;0.90;;
15480;SDS011;7842;50.904;6.670;2023-07-28T12:48:18;0.80;;;0.80;;
15480;SDS011;7842;50.904;6.670;2023-07-28T12:50:44;0.88;;;0.82;;
15480;SDS011;7842;50.904;6.670;2023-07-28T12:53:09;0.87;;;0.87;;
15480;SDS011;7842;50.904;6.670;2023-07-28T12:55:35;1.80;;;0.93;;
15480;SDS011;7842;50.904;6.670;2023-07-28T12:58:02;1.08;;;0.98;;
15480;SDS011;7842;50.904;6.670;2023-07-28T13:00:28;1.30;;;0.97;;
15480;SDS011;7842;50.904;6.670;2023-07-28T13:02:53;1.25;;;0.90;;
15480;SDS011;7842;50.904;6.670;2023-07-28T13:05:19;1.43;;;1.00;;
15480;SDS011;7842;50.904;6.670;2023-07-28T13:07:44;1.30;;;1.15;;
15480;SDS011;7842;50.904;6.670;2023-07-28T13:10:10;1.10;;;1.00;;
15480;SDS011;7842;50.904;6.670;2023-07-28T13:12:37;1.00;;;1.00;;
15480;SDS011;7842;50.904;6.670;2023-07-28T13:15:03;1.05;;;0.95;;
15480;SDS011;7842;50.904;6.670;2023-07-28T13:17:29;1.30;;;0.80;;
15480;SDS011;7842;50.904;6.670;2023-07-28T13:19:54;0.80;;;0.80;;
15480;SDS011;7842;50.904;6.670;2023-07-28T13:22:22;0.70;;;0.70;;
15480;SDS011;7842;50.904;6.670;2023-07-28T13:24:48;1.03;;;0.70;;
15480;SDS011;7842;50.904;6.670;2023-07-28T13:27:13;0.60;;;0.60;;
15480;SDS011;7842;50.904;6.670;2023-07-28T13:29:39;0.70;;;0.50;;
15480;SDS011;7842;50.904;6.670;2023-07-28T13:32:13;0.60;;;0.60;;
15480;SDS011;7842;50.904;6.670;2023-07-28T13:34:47;0.52;;;0.52;;
15480;SDS011;7842;50.904;6.670;2023-07-28T13:37:12;0.50;;;0.50;;
15480;SDS011;7842;50.904;6.670;2023-07-28T13:39:41;0.60;;;0.60;;
15480;SDS011;7842;50.904;6.670;2023-07-28T13:42:08;0.70;;;0.50;;
15480;SDS011;7842;50.904;6.670;2023-07-28T13:44:33;0.50;;;0.50;;
15480;SDS011;7842;50.904;6.670;2023-07-28T13:46:59;0.60;;;0.60;;
15480;SDS011;7842;50.904;6.670;2023-07-28T13:49:25;0.45;;;0.45;;
15480;SDS011;7842;50.904;6.670;2023-07-28T13:51:51;0.50;;;0.40;;
15480;SDS011;7842;50.904;6.670;2023-07-28T13:54:17;0.52;;;0.45;;
15480;SDS011;7842;50.904;6.670;2023-07-28T13:56:42;0.50;;;0.40;;
15480;SDS011;7842;50.904;6.670;2023-07-28T13:59:09;0.50;;;0.50;;
15480;SDS011;7842;50.904;6.670;2023-07-28T14:01:34;0.40;;;0.30;;
15480;SDS011;7842;50.904;6.670;2023-07-28T14:04:00;0.40;;;0.40;;
15480;SDS011;7842;50.904;6.670;2023-07-28T14:06:25;1.10;;;0.40;;
15480;SDS011;7842;50.904;6.670;2023-07-28T14:08:51;0.40;;;0.40;;
15480;SDS011;7842;50.904;6.670;2023-07-28T14:11:17;0.30;;;0.30;;
15480;SDS011;7842;50.904;6.670;2023-07-28T14:13:42;0.30;;;0.30;;
15480;SDS011;7842;50.904;6.670;2023-07-28T14:16:08;0.55;;;0.40;;
15480;SDS011;7842;50.904;6.670;2023-07-28T14:18:35;0.63;;;0.50;;
15480;SDS011;7842;50.904;6.670;2023-07-28T14:21:00;0.40;;;0.40;;
15480;SDS011;7842;50.904;6.670;2023-07-28T14:23:26;0.30;;;0.30;;
15480;SDS011;7842;50.904;6.670;2023-07-28T14:25:53;0.52;;;0.52;;
15480;SDS011;7842;50.904;6.670;2023-07-28T14:28:19;0.70;;;0.70;;
15480;SDS011;7842;50.904;6.670;2023-07-28T14:30:45;1.38;;;0.70;;
15480;SDS011;7842;50.904;6.670;2023-07-28T14:33:12;0.80;;;0.80;;
15480;SDS011;7842;50.904;6.670;2023-07-28T14:35:43;0.70;;;0.70;;
15480;SDS011;7842;50.904;6.670;2023-07-28T14:38:09;0.80;;;0.80;;
15480;SDS011;7842;50.904;6.670;2023-07-28T14:40:36;0.93;;;0.93;;
15480;SDS011;7842;50.904;6.670;2023-07-28T14:43:02;0.85;;;0.85;;
15480;SDS011;7842;50.904;6.670;2023-07-28T14:45:34;1.10;;;0.70;;
15480;SDS011;7842;50.904;6.670;2023-07-28T14:48:01;1.53;;;1.00;;
15480;SDS011;7842;50.904;6.670;2023-07-28T14:50:27;0.70;;;0.70;;
15480;SDS011;7842;50.904;6.670;2023-07-28T14:52:53;0.98;;;0.80;;
15480;SDS011;7842;50.904;6.670;2023-07-28T14:55:19;1.10;;;0.70;;
15480;SDS011;7842;50.904;6.670;2023-07-28T14:57:44;0.70;;;0.70;;
15480;SDS011;7842;50.904;6.670;2023-07-28T15:00:10;0.73;;;0.60;;
15480;SDS011;7842;50.904;6.670;2023-07-28T15:02:36;0.63;;;0.63;;
15480;SDS011;7842;50.904;6.670;2023-07-28T15:05:02;0.60;;;0.60;;
15480;SDS011;7842;50.904;6.670;2023-07-28T15:07:27;0.60;;;0.60;;
15480;SDS011;7842;50.904;6.670;2023-07-28T15:09:53;0.47;;;0.47;;
15480;SDS011;7842;50.904;6.670;2023-07-28T15:12:19;0.50;;;0.50;;
15480;SDS011;7842;50.904;6.670;2023-07-28T15:14:45;0.60;;;0.60;;
15480;SDS011;7842;50.904;6.670;2023-07-28T15:17:11;0.80;;;0.60;;